createdAt,value
2018-08-12T00:00:58.464Z,99.90
2018-08-12T00:03:27.709Z,99.90
2018-08-12T00:05:56.912Z,99.90
2018-08-12T00:08:26.023Z,99.90
2018-08-12T00:10:55.153Z,99.90
2018-08-12T00:13:24.349Z,99.90
2018-08-12T00:15:52.726Z,99.90
2018-08-12T00:18:20.899Z,99.90
2018-08-12T00:20:50.095Z,99.90
2018-08-12T00:23:19.205Z,99.90
2018-08-12T00:25:48.275Z,99.90
2018-08-12T00:28:17.544Z,99.90
2018-08-12T00:30:46.759Z,99.90
2018-08-12T00:33:15.839Z,99.90
2018-08-12T00:35:45.023Z,99.90
2018-08-12T00:38:14.054Z,99.90
2018-08-12T00:40:43.075Z,99.90
2018-08-12T00:43:12.224Z,99.90
2018-08-12T00:45:41.403Z,99.90
2018-08-12T00:48:10.583Z,99.90
2018-08-12T00:50:39.764Z,99.90
2018-08-12T00:53:08.944Z,99.90
2018-08-12T00:55:38.285Z,99.90
2018-08-12T00:58:07.602Z,99.90
2018-08-12T01:00:36.779Z,99.90
2018-08-12T01:03:06.011Z,99.90
2018-08-12T01:05:34.834Z,99.90
2018-08-12T01:08:04.043Z,99.90
2018-08-12T01:10:33.286Z,99.90
2018-08-12T01:13:02.559Z,99.90
2018-08-12T01:15:31.924Z,99.90
2018-08-12T01:18:01.068Z,99.90
2018-08-12T01:20:30.338Z,99.90
2018-08-12T01:22:59.678Z,99.90
2018-08-12T01:25:28.893Z,99.90
2018-08-12T01:27:58.087Z,99.90
2018-08-12T01:30:27.369Z,99.90
2018-08-12T01:32:56.556Z,99.90
2018-08-12T01:35:25.695Z,99.90
2018-08-12T01:37:54.875Z,99.90
2018-08-12T01:40:24.225Z,99.90
2018-08-12T01:42:53.359Z,99.90
2018-08-12T01:45:22.609Z,99.90
2018-08-12T01:47:51.857Z,99.90
2018-08-12T01:50:21.214Z,99.90
2018-08-12T01:52:50.357Z,99.90
2018-08-12T01:55:19.700Z,99.90
2018-08-12T01:57:48.853Z,99.90
2018-08-12T02:00:20.783Z,99.90
2018-08-12T02:02:50.220Z,99.90
2018-08-12T02:05:19.708Z,99.90
2018-08-12T02:07:48.788Z,99.90
2018-08-12T02:10:18.120Z,99.90
2018-08-12T02:12:47.209Z,99.90
2018-08-12T02:15:16.390Z,99.90
2018-08-12T02:17:45.639Z,99.90
2018-08-12T02:20:14.899Z,99.90
2018-08-12T02:22:43.971Z,99.90
2018-08-12T02:25:13.351Z,99.90
2018-08-12T02:27:42.536Z,99.90
2018-08-12T02:30:13.076Z,99.90
2018-08-12T02:32:43.269Z,99.90
2018-08-12T02:35:12.528Z,99.90
2018-08-12T02:37:42.195Z,99.90
2018-08-12T02:40:10.836Z,99.90
2018-08-12T02:42:40.181Z,99.90
2018-08-12T02:45:11.472Z,99.90
2018-08-12T02:47:40.710Z,99.90
2018-08-12T02:50:10.062Z,99.90
2018-08-12T02:52:39.268Z,99.90
2018-08-12T02:55:09.653Z,99.90
2018-08-12T02:57:38.706Z,99.90
2018-08-12T03:00:08.845Z,99.90
2018-08-12T03:02:38.201Z,99.90
2018-08-12T03:05:07.056Z,99.90
2018-08-12T03:07:36.401Z,99.90
2018-08-12T03:10:06.340Z,99.90
2018-08-12T03:12:35.527Z,99.90
2018-08-12T03:15:05.537Z,99.90
2018-08-12T03:17:33.717Z,99.90
2018-08-12T03:20:02.927Z,99.90
2018-08-12T03:22:32.228Z,99.90
2018-08-12T03:25:01.275Z,99.90
2018-08-12T03:27:30.511Z,99.90
2018-08-12T03:29:59.757Z,99.90
2018-08-12T03:32:28.905Z,99.90
2018-08-12T03:34:58.087Z,99.90
2018-08-12T03:37:27.276Z,99.90
2018-08-12T03:39:56.455Z,99.90
2018-08-12T03:42:25.455Z,99.90
2018-08-12T03:44:54.520Z,99.90
2018-08-12T03:47:23.771Z,99.90
2018-08-12T03:49:52.857Z,99.90
2018-08-12T03:52:21.943Z,99.90
2018-08-12T03:54:51.133Z,99.90
2018-08-12T03:57:20.388Z,99.90
2018-08-12T03:59:49.524Z,99.90
2018-08-12T04:02:18.624Z,99.90
2018-08-12T04:04:47.727Z,99.90
2018-08-12T04:07:16.810Z,99.90
2018-08-12T04:09:45.920Z,99.90
2018-08-12T04:12:14.888Z,99.90
2018-08-12T04:14:44.207Z,99.90
2018-08-12T04:17:13.500Z,99.90
2018-08-12T04:19:42.589Z,99.90
2018-08-12T04:22:11.820Z,99.90
2018-08-12T04:24:41.001Z,99.90
2018-08-12T04:27:10.088Z,99.90
2018-08-12T04:29:39.105Z,99.90
2018-08-12T04:32:08.377Z,99.90
2018-08-12T04:34:37.519Z,99.90
2018-08-12T04:37:06.675Z,99.90
2018-08-12T04:39:35.664Z,99.90
2018-08-12T04:42:04.964Z,99.90
2018-08-12T04:44:34.376Z,99.90
2018-08-12T04:47:03.587Z,99.90
2018-08-12T04:49:32.563Z,99.90
2018-08-12T04:52:01.723Z,99.90
2018-08-12T04:54:30.978Z,99.90
2018-08-12T04:57:00.356Z,99.90
2018-08-12T04:59:29.597Z,99.90
2018-08-12T05:01:58.737Z,99.90
2018-08-12T05:04:27.844Z,99.90
2018-08-12T05:06:56.952Z,99.90
2018-08-12T05:09:25.963Z,99.90
2018-08-12T05:11:55.271Z,99.90
2018-08-12T05:14:24.429Z,99.90
2018-08-12T05:16:53.531Z,99.90
2018-08-12T05:19:22.629Z,99.90
2018-08-12T05:21:51.808Z,99.90
2018-08-12T05:24:20.937Z,99.90
2018-08-12T05:26:50.208Z,99.90
2018-08-12T05:29:19.388Z,99.90
2018-08-12T05:31:48.591Z,99.90
2018-08-12T05:34:17.776Z,99.90
2018-08-12T05:36:47.027Z,99.90
2018-08-12T05:39:16.301Z,99.90
2018-08-12T05:41:45.389Z,99.90
2018-08-12T05:44:14.601Z,99.90
2018-08-12T05:46:43.795Z,99.90
2018-08-12T05:49:12.898Z,99.90
2018-08-12T05:51:42.032Z,99.90
2018-08-12T05:54:10.159Z,99.90
2018-08-12T05:56:38.377Z,99.90
2018-08-12T05:59:06.549Z,99.90
2018-08-12T06:01:34.636Z,99.90
2018-08-12T06:04:02.791Z,99.90
2018-08-12T06:06:31.032Z,99.90
2018-08-12T06:08:59.314Z,99.90
2018-08-12T06:11:27.414Z,99.90
2018-08-12T06:13:55.495Z,99.90
2018-08-12T06:16:23.649Z,99.90
2018-08-12T06:18:51.711Z,99.90
2018-08-12T06:21:19.803Z,99.90
2018-08-12T06:23:47.872Z,99.90
2018-08-12T06:26:16.081Z,99.90
2018-08-12T06:28:45.180Z,99.90
2018-08-12T06:31:13.313Z,99.90
2018-08-12T06:33:41.357Z,99.90
2018-08-12T06:36:09.426Z,99.90
2018-08-12T06:38:38.624Z,99.90
2018-08-12T06:41:06.824Z,99.90
2018-08-12T06:43:36.040Z,99.90
2018-08-12T06:46:04.304Z,99.90
2018-08-12T06:48:32.380Z,99.90
2018-08-12T06:51:00.647Z,99.90
2018-08-12T06:53:29.895Z,99.90
2018-08-12T06:55:59.014Z,99.90
2018-08-12T06:58:28.091Z,99.90
2018-08-12T07:00:57.211Z,99.90
2018-08-12T07:03:26.415Z,99.90
2018-08-12T07:05:55.563Z,99.90
2018-08-12T07:08:24.752Z,99.90
2018-08-12T07:10:53.749Z,99.90
2018-08-12T07:13:22.880Z,99.90
2018-08-12T07:15:52.079Z,99.90
2018-08-12T07:18:21.290Z,99.90
2018-08-12T07:20:50.532Z,99.90
2018-08-12T07:23:19.848Z,99.90
2018-08-12T07:25:49.162Z,99.90
2018-08-12T07:28:18.373Z,99.90
2018-08-12T07:30:47.665Z,99.90
2018-08-12T07:33:16.747Z,99.90
2018-08-12T07:35:45.928Z,99.90
2018-08-12T07:38:14.925Z,99.90
2018-08-12T07:40:43.971Z,99.90
2018-08-12T07:43:13.239Z,99.90
2018-08-12T07:45:42.580Z,99.50
2018-08-12T07:48:11.820Z,99.50
2018-08-12T07:50:41.014Z,99.30
2018-08-12T07:53:10.259Z,98.80
2018-08-12T07:55:39.558Z,98.50
2018-08-12T07:58:08.515Z,98.80
2018-08-12T08:00:37.801Z,99.50
2018-08-12T08:03:06.922Z,98.20
2018-08-12T08:05:35.863Z,97.60
2018-08-12T08:08:05.614Z,96.50
2018-08-12T08:10:34.482Z,97.30
2018-08-12T08:13:03.344Z,95.60
2018-08-12T08:15:32.276Z,95.40
2018-08-12T08:18:01.175Z,93.70
2018-08-12T08:20:30.104Z,91.80
2018-08-12T08:22:59.021Z,91.20
2018-08-12T08:25:28.116Z,90.10
2018-08-12T08:27:56.994Z,87.20
2018-08-12T08:30:25.876Z,83.40
2018-08-12T08:32:55.167Z,79.30
2018-08-12T08:35:24.161Z,84.10
2018-08-12T08:37:53.123Z,76.00
2018-08-12T08:40:22.278Z,71.70
2018-08-12T08:42:51.172Z,67.80
2018-08-12T08:45:21.595Z,66.70
2018-08-12T08:47:51.948Z,68.70
2018-08-12T08:50:22.314Z,66.40
2018-08-12T08:52:51.346Z,63.80
2018-08-12T08:55:20.192Z,63.50
2018-08-12T08:57:49.085Z,63.10
2018-08-12T09:00:19.623Z,65.10
2018-08-12T09:02:50.154Z,65.80
2018-08-12T09:05:19.587Z,61.50
2018-08-12T09:07:48.853Z,60.80
2018-08-12T09:10:18.808Z,58.70
2018-08-12T09:12:47.790Z,59.10
2018-08-12T09:15:18.090Z,60.40
2018-08-12T09:17:47.593Z,60.30
2018-08-12T09:20:18.749Z,61.30
2018-08-12T09:22:47.630Z,63.00
2018-08-12T09:25:17.001Z,60.30
2018-08-12T09:27:46.253Z,60.30
2018-08-12T09:30:17.372Z,60.60
2018-08-12T09:32:46.957Z,62.50
2018-08-12T09:35:16.316Z,64.50
2018-08-12T09:37:45.308Z,63.40
2018-08-12T09:40:17.830Z,62.00
2018-08-12T09:42:47.802Z,62.20
2018-08-12T09:45:19.544Z,63.60
2018-08-12T09:47:48.780Z,60.70
2018-08-12T09:50:19.166Z,61.00
2018-08-12T09:52:49.386Z,56.70
2018-08-12T09:55:19.111Z,57.10
2018-08-12T09:57:48.201Z,57.00
2018-08-12T10:00:23.249Z,57.40
2018-08-12T10:02:54.110Z,57.60
2018-08-12T10:05:23.430Z,57.10
2018-08-12T10:07:52.667Z,57.30
2018-08-12T10:10:22.073Z,56.40
2018-08-12T10:12:51.255Z,55.50
2018-08-12T10:15:20.183Z,55.80
2018-08-12T10:17:52.155Z,56.30
2018-08-12T10:20:21.585Z,56.80
2018-08-12T10:22:50.925Z,56.00
2018-08-12T10:25:20.203Z,54.80
2018-08-12T10:27:49.327Z,54.50
2018-08-12T10:30:18.522Z,53.10
2018-08-12T10:32:47.818Z,54.10
2018-08-12T10:35:17.631Z,55.50
2018-08-12T10:37:46.961Z,53.90
2018-08-12T10:40:17.859Z,54.00
2018-08-12T10:42:47.735Z,52.40
2018-08-12T10:45:17.047Z,52.50
2018-08-12T10:47:46.436Z,53.30
2018-08-12T10:50:19.316Z,52.60
2018-08-12T10:52:49.107Z,52.70
2018-08-12T10:55:20.887Z,53.80
2018-08-12T10:57:50.200Z,52.70
2018-08-12T11:00:23.206Z,55.00
2018-08-12T11:02:52.982Z,53.50
2018-08-12T11:05:22.235Z,53.90
2018-08-12T11:07:53.040Z,51.90
2018-08-12T11:10:22.284Z,51.00
2018-08-12T11:12:53.393Z,51.20
2018-08-12T11:15:22.510Z,50.90
2018-08-12T11:17:51.788Z,50.50
2018-08-12T11:20:21.070Z,50.10
2018-08-12T11:22:50.706Z,51.00
2018-08-12T11:25:20.329Z,50.80
2018-08-12T11:27:49.241Z,50.90
2018-08-12T11:30:18.864Z,50.40
2018-08-12T11:32:48.249Z,49.80
2018-08-12T11:35:18.674Z,51.00
2018-08-12T11:37:47.519Z,49.80
2018-08-12T11:40:16.859Z,49.90
2018-08-12T11:42:45.772Z,47.80
2018-08-12T11:45:16.096Z,49.00
2018-08-12T11:47:46.058Z,48.20
2018-08-12T11:50:15.639Z,48.20
2018-08-12T11:52:45.306Z,48.00
2018-08-12T11:55:16.797Z,49.40
2018-08-12T11:57:45.754Z,48.30
2018-08-12T12:00:16.727Z,48.80
2018-08-12T12:02:47.556Z,48.00
2018-08-12T12:05:16.464Z,48.10
2018-08-12T12:07:45.609Z,47.20
2018-08-12T12:10:16.959Z,46.00
2018-08-12T12:12:47.241Z,46.90
2018-08-12T12:15:16.828Z,45.30
2018-08-12T12:17:46.549Z,45.50
2018-08-12T12:20:16.346Z,44.30
2018-08-12T12:22:45.938Z,44.10
2018-08-12T12:25:16.025Z,43.80
2018-08-12T12:27:45.043Z,42.90
2018-08-12T12:30:18.358Z,43.60
2018-08-12T12:32:48.079Z,43.20
2018-08-12T12:35:16.960Z,42.00
2018-08-12T12:37:45.909Z,42.10
2018-08-12T12:40:16.245Z,41.70
2018-08-12T12:42:45.686Z,42.30
2018-08-12T12:45:15.098Z,41.60
2018-08-12T12:47:44.525Z,40.90
2018-08-12T12:50:15.570Z,40.20
2018-08-12T12:52:44.598Z,41.00
2018-08-12T12:55:13.505Z,40.30
2018-08-12T12:57:42.568Z,40.70
2018-08-12T13:00:13.545Z,41.00
2018-08-12T13:02:42.438Z,39.70
2018-08-12T13:05:13.690Z,41.30
2018-08-12T13:07:43.422Z,40.20
2018-08-12T13:10:13.030Z,41.00
2018-08-12T13:12:42.677Z,38.90
2018-08-12T13:15:12.688Z,39.00
2018-08-12T13:17:41.714Z,39.20
2018-08-12T13:20:15.925Z,39.40
2018-08-12T13:22:46.051Z,39.10
2018-08-12T13:25:16.851Z,38.10
2018-08-12T13:27:45.946Z,39.10
2018-08-12T13:30:15.879Z,37.80
2018-08-12T13:32:45.782Z,37.60
2018-08-12T13:35:14.652Z,38.20
2018-08-12T13:37:43.631Z,37.30
2018-08-12T13:40:13.984Z,38.50
2018-08-12T13:42:43.688Z,36.30
2018-08-12T13:45:13.103Z,38.30
2018-08-12T13:47:43.542Z,37.60
2018-08-12T13:50:21.170Z,38.20
2018-08-12T13:52:50.753Z,35.90
2018-08-12T13:55:20.329Z,37.90
2018-08-12T13:57:50.114Z,37.50
2018-08-12T14:00:21.585Z,36.20
2018-08-12T14:02:50.531Z,37.50
2018-08-12T14:05:19.924Z,36.50
2018-08-12T14:07:49.316Z,36.10
2018-08-12T14:10:18.215Z,36.20
2018-08-12T14:12:47.130Z,37.20
2018-08-12T14:15:18.745Z,36.70
2018-08-12T14:17:48.641Z,35.60
2018-08-12T14:20:19.703Z,35.30
2018-08-12T14:22:48.644Z,36.40
2018-08-12T14:25:17.703Z,35.10
2018-08-12T14:27:46.528Z,36.60
2018-08-12T14:30:17.579Z,35.60
2018-08-12T14:32:47.216Z,37.30
2018-08-12T14:35:16.180Z,36.10
2018-08-12T14:37:45.159Z,34.60
2018-08-12T14:40:14.619Z,35.70
2018-08-12T14:42:43.783Z,35.30
2018-08-12T14:45:13.727Z,35.60
2018-08-12T14:47:42.906Z,36.60
2018-08-12T14:50:14.544Z,36.50
2018-08-12T14:52:43.525Z,36.60
2018-08-12T14:55:13.079Z,35.70
2018-08-12T14:57:42.817Z,35.60
2018-08-12T15:00:15.124Z,37.00
2018-08-12T15:02:44.846Z,35.60
2018-08-12T15:05:13.663Z,35.60
2018-08-12T15:07:42.514Z,34.90
2018-08-12T15:10:12.018Z,34.80
2018-08-12T15:12:41.957Z,34.70
2018-08-12T15:15:12.417Z,35.70
2018-08-12T15:17:42.626Z,35.70
2018-08-12T15:20:11.925Z,35.70
2018-08-12T15:22:42.176Z,36.80
2018-08-12T15:25:13.252Z,35.40
2018-08-12T15:27:42.279Z,34.90
2018-08-12T15:30:11.600Z,35.80
2018-08-12T15:32:40.646Z,34.50
2018-08-12T15:35:09.947Z,34.20
2018-08-12T15:37:38.947Z,35.00
2018-08-12T15:40:09.928Z,35.90
2018-08-12T15:42:38.965Z,36.70
2018-08-12T15:45:10.486Z,35.90
2018-08-12T15:47:39.877Z,37.00
2018-08-12T15:50:09.811Z,36.40
2018-08-12T15:52:39.131Z,37.00
2018-08-12T15:55:08.570Z,37.20
2018-08-12T15:57:37.492Z,36.70
2018-08-12T16:00:10.869Z,35.90
2018-08-12T16:02:39.764Z,35.70
2018-08-12T16:05:08.737Z,37.10
2018-08-12T16:07:37.656Z,37.20
2018-08-12T16:10:10.056Z,37.40
2018-08-12T16:12:38.945Z,36.50
2018-08-12T16:15:10.105Z,37.50
2018-08-12T16:17:39.467Z,37.50
2018-08-12T16:20:08.799Z,37.60
2018-08-12T16:22:37.951Z,37.60
2018-08-12T16:25:09.335Z,38.00
2018-08-12T16:27:38.329Z,38.40
2018-08-12T16:30:08.907Z,38.90
2018-08-12T16:32:37.858Z,38.80
2018-08-12T16:35:07.647Z,39.10
2018-08-12T16:37:36.725Z,39.10
2018-08-12T16:40:07.425Z,40.00
2018-08-12T16:42:36.864Z,40.60
2018-08-12T16:45:06.760Z,40.00
2018-08-12T16:47:35.865Z,40.10
2018-08-12T16:50:06.213Z,39.90
2018-08-12T16:52:35.248Z,40.50
2018-08-12T16:55:05.114Z,39.90
2018-08-12T16:57:33.934Z,40.20
2018-08-12T17:00:03.372Z,40.70
2018-08-12T17:02:32.386Z,40.80
2018-08-12T17:05:01.261Z,41.30
2018-08-12T17:07:30.207Z,41.00
2018-08-12T17:09:59.442Z,41.70
2018-08-12T17:12:28.615Z,41.90
2018-08-12T17:14:57.773Z,42.10
2018-08-12T17:17:27.008Z,42.40
2018-08-12T17:19:56.275Z,42.70
2018-08-12T17:22:25.827Z,42.90
2018-08-12T17:24:55.025Z,43.00
2018-08-12T17:27:24.013Z,43.40
2018-08-12T17:29:53.241Z,43.60
2018-08-12T17:32:22.873Z,43.80
2018-08-12T17:34:52.018Z,44.10
2018-08-12T17:37:21.206Z,44.20
2018-08-12T17:39:50.538Z,44.70
2018-08-12T17:42:19.796Z,44.90
2018-08-12T17:44:49.131Z,45.20
2018-08-12T17:47:18.396Z,45.40
2018-08-12T17:49:47.615Z,45.40
2018-08-12T17:52:16.786Z,45.20
2018-08-12T17:54:45.993Z,45.80
2018-08-12T17:57:15.332Z,46.10
2018-08-12T17:59:44.496Z,46.40
2018-08-12T18:02:13.578Z,46.90
2018-08-12T18:04:42.883Z,47.40
2018-08-12T18:07:12.184Z,47.60
2018-08-12T18:09:41.435Z,47.50
2018-08-12T18:12:10.695Z,47.60
2018-08-12T18:14:39.909Z,47.80
2018-08-12T18:17:09.193Z,47.90
2018-08-12T18:19:38.396Z,47.90
2018-08-12T18:22:07.659Z,48.50
2018-08-12T18:24:37.012Z,49.30
2018-08-12T18:27:06.202Z,49.40
2018-08-12T18:29:35.570Z,49.30
2018-08-12T18:32:04.899Z,49.50
2018-08-12T18:34:34.119Z,49.80
2018-08-12T18:37:04.249Z,49.50
2018-08-12T18:39:33.494Z,49.70
2018-08-12T18:42:02.577Z,49.80
2018-08-12T18:44:31.792Z,50.30
2018-08-12T18:47:01.040Z,50.70
2018-08-12T18:49:30.299Z,50.90
2018-08-12T18:51:59.604Z,50.90
2018-08-12T18:54:28.691Z,51.00
2018-08-12T18:56:57.786Z,51.40
2018-08-12T18:59:26.652Z,51.70
2018-08-12T19:01:55.767Z,51.20
2018-08-12T19:04:24.988Z,50.60
2018-08-12T19:06:54.267Z,50.50
2018-08-12T19:09:23.452Z,50.50
2018-08-12T19:11:52.573Z,51.00
2018-08-12T19:14:21.719Z,51.40
2018-08-12T19:16:50.935Z,51.60
2018-08-12T19:19:20.204Z,51.40
2018-08-12T19:21:49.367Z,51.70
2018-08-12T19:24:18.734Z,52.00
2018-08-12T19:26:47.830Z,51.60
2018-08-12T19:29:17.060Z,52.10
2018-08-12T19:31:46.124Z,53.50
2018-08-12T19:34:15.253Z,52.80
2018-08-12T19:36:44.250Z,52.70
2018-08-12T19:39:13.414Z,52.50
2018-08-12T19:41:42.503Z,52.70
2018-08-12T19:44:11.705Z,52.40
2018-08-12T19:46:41.015Z,52.00
2018-08-12T19:49:10.122Z,51.90
2018-08-12T19:51:39.280Z,54.10
2018-08-12T19:54:08.380Z,55.20
2018-08-12T19:56:37.470Z,55.50
2018-08-12T19:59:06.569Z,55.60
2018-08-12T20:01:35.700Z,56.20
2018-08-12T20:04:04.919Z,57.90
2018-08-12T20:06:34.244Z,58.50
2018-08-12T20:09:03.613Z,58.10
2018-08-12T20:11:32.879Z,59.80
2018-08-12T20:14:02.006Z,58.60
2018-08-12T20:16:31.381Z,61.00
2018-08-12T20:19:00.460Z,59.40
2018-08-12T20:21:29.660Z,58.50
2018-08-12T20:23:58.863Z,59.60
2018-08-12T20:26:28.183Z,60.40
2018-08-12T20:28:57.378Z,61.30
2018-08-12T20:31:26.659Z,62.00
2018-08-12T20:33:55.748Z,62.30
2018-08-12T20:36:24.870Z,64.20
2018-08-12T20:38:54.170Z,64.30
2018-08-12T20:41:23.421Z,66.90
2018-08-12T20:43:52.595Z,67.90
2018-08-12T20:46:21.788Z,67.80
2018-08-12T20:48:50.906Z,66.70
2018-08-12T20:51:20.058Z,67.40
2018-08-12T20:53:49.231Z,68.00
2018-08-12T20:56:18.225Z,70.00
2018-08-12T20:58:47.313Z,71.80
2018-08-12T21:01:16.519Z,71.10
2018-08-12T21:03:45.661Z,70.80
2018-08-12T21:06:15.060Z,71.60
2018-08-12T21:08:44.544Z,70.50
2018-08-12T21:11:13.777Z,70.40
2018-08-12T21:13:42.918Z,69.60
2018-08-12T21:16:12.158Z,69.50
2018-08-12T21:18:41.173Z,71.50
2018-08-12T21:21:10.280Z,73.50
2018-08-12T21:23:39.483Z,74.80
2018-08-12T21:26:08.726Z,76.00
2018-08-12T21:28:37.962Z,75.70
2018-08-12T21:31:07.095Z,76.70
2018-08-12T21:33:36.531Z,75.80
2018-08-12T21:36:05.454Z,75.80
2018-08-12T21:38:34.495Z,75.50
2018-08-12T21:41:03.499Z,75.80
2018-08-12T21:43:32.648Z,75.50
2018-08-12T21:46:01.724Z,76.60
2018-08-12T21:48:30.930Z,75.60
2018-08-12T21:51:00.144Z,75.80
2018-08-12T21:53:29.264Z,76.40
2018-08-12T21:55:58.436Z,77.00
2018-08-12T21:58:27.635Z,78.00
2018-08-12T22:00:57.710Z,78.20
2018-08-12T22:03:26.989Z,79.40
2018-08-12T22:05:56.347Z,79.00
2018-08-12T22:08:25.539Z,79.60
2018-08-12T22:10:54.622Z,79.00
2018-08-12T22:13:23.761Z,78.70
2018-08-12T22:15:53.002Z,79.00
2018-08-12T22:18:22.192Z,80.90
2018-08-12T22:20:51.448Z,81.80
2018-08-12T22:23:20.522Z,82.20
2018-08-12T22:25:49.463Z,84.70
2018-08-12T22:28:18.611Z,85.00
2018-08-12T22:30:47.967Z,85.60
2018-08-12T22:33:17.210Z,85.50
2018-08-12T22:35:46.306Z,85.40
2018-08-12T22:38:15.604Z,85.60
2018-08-12T22:40:44.720Z,86.60
2018-08-12T22:43:13.816Z,86.10
2018-08-12T22:45:43.007Z,86.10
2018-08-12T22:48:12.286Z,87.80
2018-08-12T22:50:41.473Z,87.30
2018-08-12T22:53:10.693Z,88.40
2018-08-12T22:55:39.917Z,87.40
2018-08-12T22:58:09.211Z,88.80
2018-08-12T23:00:38.479Z,89.70
2018-08-12T23:03:08.356Z,89.60
2018-08-12T23:05:37.633Z,89.40
2018-08-12T23:08:10.357Z,89.40
2018-08-12T23:10:40.456Z,90.20
2018-08-12T23:13:09.915Z,90.50
2018-08-12T23:16:17.349Z,90.30
2018-08-12T23:18:46.476Z,90.20
2018-08-12T23:21:16.753Z,91.10
2018-08-12T23:23:47.108Z,91.20
2018-08-12T23:26:17.517Z,91.50
2018-08-12T23:28:46.863Z,92.00
2018-08-12T23:31:16.061Z,92.60
2018-08-12T23:33:45.350Z,92.90
2018-08-12T23:36:14.644Z,93.40
2018-08-12T23:38:43.705Z,92.80
2018-08-12T23:41:13.260Z,93.20
2018-08-12T23:43:42.356Z,93.20
2018-08-12T23:46:12.132Z,93.30
2018-08-12T23:48:41.361Z,93.40
2018-08-12T23:51:10.463Z,93.90
2018-08-12T23:53:39.765Z,94.40
2018-08-12T23:56:09.065Z,94.60
2018-08-12T23:58:38.352Z,95.50
